Time;durP1;ratioP1;P1;durP2;ratioP2;P2;SDS_P1;SDS_P2;PMS_P1;PMS_P2;Temp;Humidity;BMP_temperature;BMP_pressure;BME280_temperature;BME280_humidity;BME280_pressure;Samples;Min_cycle;Max_cycle;Signal;HPM_P1;HPM_P2
2022/06/28 00:01:36;;;;;;;2.85;2.27;;;;;;;14.50;100.00;100961.91;1696059;83;21219;-40
2022/06/28 00:04:03;;;;;;;3.25;2.40;;;;;;;14.51;100.00;100963.63;1695716;83;20865;-41
2022/06/28 00:06:30;;;;;;;8.98;2.50;;;;;;;14.51;100.00;100968.40;1695890;83;20920;-41
2022/06/28 00:08:58;;;;;;;8.65;2.00;;;;;;;14.51;100.00;100963.19;1695978;83;20905;-41
2022/06/28 00:11:24;;;;;;;5.62;2.15;;;;;;;14.50;100.00;100960.61;1696135;83;20862;-41
2022/06/28 00:13:52;;;;;;;3.60;2.17;;;;;;;14.50;100.00;100964.52;1695975;84;21280;-40
2022/06/28 00:16:19;;;;;;;4.50;2.70;;;;;;;14.46;100.00;100957.25;1696017;84;20995;-41
2022/06/28 00:18:46;;;;;;;6.25;2.33;;;;;;;14.42;100.00;100952.16;1666251;84;20928;-41
2022/06/28 00:21:13;;;;;;;7.70;2.33;;;;;;;14.40;100.00;100953.95;1695904;84;20925;-41
2022/06/28 00:23:42;;;;;;;5.80;2.70;;;;;;;14.40;100.00;100947.44;1695985;84;20952;-41
2022/06/28 00:26:11;;;;;;;2.52;2.20;;;;;;;14.42;100.00;100948.25;1695946;84;21152;-41
2022/06/28 00:28:37;;;;;;;2.45;2.25;;;;;;;14.43;100.00;100945.63;1695732;83;21502;-41
2022/06/28 00:31:04;;;;;;;7.58;2.62;;;;;;;14.40;100.00;100942.23;1696004;84;21000;-42
2022/06/28 00:33:31;;;;;;;2.37;2.22;;;;;;;14.35;100.00;100942.34;1695991;83;20901;-41
2022/06/28 00:35:58;;;;;;;6.15;2.33;;;;;;;14.30;100.00;100941.62;1696114;84;20916;-41
2022/06/28 00:38:24;;;;;;;5.65;2.30;;;;;;;14.26;100.00;100934.79;1696034;83;21262;-41
2022/06/28 00:40:53;;;;;;;4.20;2.60;;;;;;;14.22;100.00;100936.60;1695836;83;20945;-42
2022/06/28 00:43:21;;;;;;;4.87;2.25;;;;;;;14.17;100.00;100935.88;1698524;83;21019;-41
2022/06/28 00:45:48;;;;;;;4.55;2.62;;;;;;;14.16;100.00;100939.38;1711205;82;20928;-41
2022/06/28 00:48:17;;;;;;;11.97;2.65;;;;;;;14.13;100.00;100939.45;1701607;84;20936;-41
2022/06/28 00:50:46;;;;;;;4.60;3.05;;;;;;;14.10;100.00;100944.75;1711178;84;21948;-41
2022/06/28 00:53:16;;;;;;;5.55;2.50;;;;;;;14.06;100.00;100949.16;1701527;84;20996;-41
2022/06/28 00:58:43;;;;;;;9.88;2.17;;;;;;;14.08;100.00;100948.67;1816315;79;22249;-41
2022/06/28 01:01:10;;;;;;;3.75;2.40;;;;;;;14.07;100.00;100949.14;1789433;80;20991;-41
2022/06/28 01:03:38;;;;;;;3.02;2.27;;;;;;;14.12;100.00;100949.46;1787027;79;21270;-40
2022/06/28 01:06:05;;;;;;;2.47;2.27;;;;;;;14.19;100.00;100947.97;1784629;80;20905;-40
2022/06/28 01:08:32;;;;;;;6.15;2.30;;;;;;;14.24;100.00;100949.13;1784446;80;20976;-40
2022/06/28 01:11:18;;;;;;;4.50;2.35;;;;;;;14.23;100.00;100949.59;1784248;80;20933;-41
2022/06/28 01:13:27;;;;;;;4.28;2.27;;;;;;;14.22;100.00;100952.22;1780382;80;21002;-42
2022/06/28 01:15:55;;;;;;;3.42;2.20;;;;;;;14.20;100.00;100954.02;1784459;80;21237;-41
2022/06/28 01:18:22;;;;;;;3.45;2.37;;;;;;;14.17;100.00;100953.67;1784429;80;21419;-41
2022/06/28 01:20:50;;;;;;;11.12;2.80;;;;;;;14.15;100.00;100950.25;1784296;80;20928;-41
2022/06/28 01:23:22;;;;;;;5.30;2.45;;;;;;;14.11;100.00;100952.96;1783145;80;20849;-41
2022/06/28 01:26:10;;;;;;;4.25;2.20;;;;;;;14.07;100.00;100953.05;1784330;80;21527;-40
2022/06/28 01:28:39;;;;;;;7.12;2.40;;;;;;;14.04;100.00;100948.34;1784131;80;21762;-41
2022/06/28 01:31:24;;;;;;;5.08;2.40;;;;;;;14.02;100.00;100957.52;1760544;80;21383;-41
2022/06/28 01:33:52;;;;;;;4.35;2.58;;;;;;;13.99;100.00;100960.16;1784319;80;21018;-41
2022/06/28 01:36:20;;;;;;;6.03;2.15;;;;;;;13.98;100.00;100953.72;1784133;80;20979;-42
2022/06/28 01:38:47;;;;;;;7.25;2.27;;;;;;;13.97;100.00;100958.52;1784317;80;20963;-41
2022/06/28 01:41:33;;;;;;;4.90;2.75;;;;;;;13.96;100.00;100958.11;1784335;80;21068;-41
2022/06/28 01:44:04;;;;;;;5.10;2.22;;;;;;;13.94;100.00;100955.53;1783705;80;20919;-41
2022/06/28 01:46:31;;;;;;;3.50;2.30;;;;;;;13.93;100.00;100954.69;1784538;80;20999;-41
2022/06/28 01:49:00;;;;;;;6.62;2.47;;;;;;;13.94;100.00;100950.32;1784085;80;20924;-41
2022/06/28 01:51:27;;;;;;;8.33;2.27;;;;;;;13.94;100.00;100949.89;1784383;80;20873;-42
2022/06/28 01:53:54;;;;;;;7.28;2.72;;;;;;;13.95;100.00;100946.83;1784249;80;21017;-42
2022/06/28 01:56:23;;;;;;;4.92;2.40;;;;;;;13.94;100.00;100953.80;1783258;80;20877;-41
2022/06/28 01:59:03;;;;;;;9.53;2.47;;;;;;;13.95;100.00;100949.42;1736334;80;20900;-41
2022/06/28 02:01:31;;;;;;;3.42;2.52;;;;;;;13.97;100.00;100947.64;1756059;80;20940;-41
2022/06/28 02:04:00;;;;;;;4.17;2.67;;;;;;;14.01;100.00;100947.12;1784251;79;20971;-41
2022/06/28 02:06:28;;;;;;;3.00;2.20;;;;;;;14.05;100.00;100950.05;1780012;80;21157;-42
2022/06/28 02:08:57;;;;;;;5.40;2.50;;;;;;;14.08;100.00;100943.03;1783829;80;20928;-41
2022/06/28 02:11:26;;;;;;;4.40;2.27;;;;;;;14.16;100.00;100952.39;1783342;80;20967;-42
2022/06/28 02:13:54;;;;;;;5.47;2.55;;;;;;;14.23;100.00;100948.73;1783861;80;20900;-42
2022/06/28 02:16:22;;;;;;;7.60;2.60;;;;;;;14.27;100.00;100962.07;1783806;80;20901;-42
2022/06/28 02:18:50;;;;;;;5.87;2.60;;;;;;;14.32;100.00;100958.92;1783673;80;21246;-42
2022/06/28 02:21:17;;;;;;;4.30;2.40;;;;;;;14.40;100.00;100964.37;1783785;80;21042;-41
2022/06/28 02:23:44;;;;;;;6.37;2.72;;;;;;;14.49;100.00;100969.32;1783829;80;20869;-41
2022/06/28 02:26:13;;;;;;;2.98;2.60;;;;;;;14.57;100.00;100967.39;1783669;80;20940;-41
2022/06/28 02:28:41;;;;;;;6.75;2.55;;;;;;;14.64;100.00;100967.62;1783826;80;21026;-41
2022/06/28 02:31:11;;;;;;;2.58;2.35;;;;;;;14.71;100.00;100959.66;1783678;80;21227;-41
2022/06/28 02:33:38;;;;;;;10.35;2.80;;;;;;;14.78;100.00;100959.92;1783205;80;20967;-41
2022/06/28 02:41:38;;;;;;;7.20;2.60;;;;;;;14.96;100.00;100961.14;1783698;80;20088;-40
2022/06/28 02:44:05;;;;;;;4.55;2.50;;;;;;;15.00;100.00;100968.40;1783770;80;21160;-40
2022/06/28 02:46:31;;;;;;;11.18;2.60;;;;;;;15.04;100.00;100965.67;1783506;80;20822;-41
2022/06/28 02:48:59;;;;;;;9.88;2.62;;;;;;;15.09;100.00;100962.94;1783655;80;20980;-41
2022/06/28 02:51:26;;;;;;;8.45;2.70;;;;;;;15.16;100.00;100963.63;1783654;80;21497;-41
2022/06/28 02:53:53;;;;;;;11.38;2.75;;;;;;;15.22;100.00;100953.84;1783682;80;20950;-41
2022/06/28 02:56:20;;;;;;;7.50;2.70;;;;;;;15.27;100.00;100955.02;1783698;80;21127;-41
2022/06/28 02:58:48;;;;;;;2.77;2.45;;;;;;;15.34;100.00;100954.39;1772915;80;20925;-41
2022/06/28 03:01:15;;;;;;;6.75;2.80;;;;;;;15.41;100.00;100957.20;1770323;80;20984;-41
2022/06/28 03:03:42;;;;;;;8.40;3.12;;;;;;;15.48;100.00;100960.48;1770149;80;20964;-41
2022/06/28 03:06:10;;;;;;;10.08;2.80;;;;;;;15.58;100.00;100961.05;1770259;80;20913;-40
2022/06/28 03:08:36;;;;;;;5.05;2.83;;;;;;;15.69;100.00;100954.19;1770179;80;22145;-41
2022/06/28 03:11:04;;;;;;;8.18;2.80;;;;;;;15.80;100.00;100968.61;1770307;80;21039;-41
2022/06/28 03:13:31;;;;;;;6.30;3.00;;;;;;;15.91;100.00;100967.42;1770123;80;20924;-41
2022/06/28 03:15:57;;;;;;;7.10;2.83;;;;;;;16.01;100.00;100971.89;1770250;80;20937;-41
2022/06/28 03:18:24;;;;;;;7.33;2.77;;;;;;;16.12;100.00;100972.84;1770262;81;20953;-42
2022/06/28 03:20:51;;;;;;;6.80;2.70;;;;;;;16.25;100.00;100968.06;1770305;81;21227;-41
2022/06/28 03:23:18;;;;;;;3.47;2.55;;;;;;;16.38;100.00;100974.11;1770182;80;20991;-41
2022/06/28 03:25:45;;;;;;;5.62;2.70;;;;;;;16.50;100.00;100974.58;1770257;80;20972;-42
2022/06/28 03:28:11;;;;;;;3.58;2.85;;;;;;;16.59;100.00;100976.02;1750916;81;20936;-41
2022/06/28 03:30:39;;;;;;;5.03;3.00;;;;;;;16.70;100.00;100975.64;1770456;80;21435;-41
2022/06/28 03:33:06;;;;;;;3.80;2.50;;;;;;;16.83;100.00;100969.52;1770214;80;21238;-41
2022/06/28 03:35:35;;;;;;;6.67;2.70;;;;;;;16.95;100.00;100967.30;1770549;81;22482;-42
2022/06/28 03:38:02;;;;;;;9.85;2.25;;;;;;;17.09;100.00;100961.58;1770172;81;20901;-41
2022/06/28 03:40:40;;;;;;;5.47;2.42;;;;;;;17.27;99.04;100966.16;1766608;81;20885;-41
2022/06/28 03:43:06;;;;;;;6.33;2.62;;;;;;;17.51;98.37;100957.83;1750520;81;20975;-41
2022/06/28 03:45:33;;;;;;;8.33;2.95;;;;;;;17.84;97.57;100960.47;1750577;81;21298;-42
2022/06/28 03:48:08;;;;;;;10.40;2.72;;;;;;;18.21;96.17;100961.57;1739566;80;20869;-41
2022/06/28 03:50:53;;;;;;;5.73;2.30;;;;;;;18.61;94.08;100965.09;1770323;80;20936;-43
2022/06/28 03:53:21;;;;;;;5.83;2.45;;;;;;;19.02;90.93;100964.17;1768674;80;21510;-43
2022/06/28 03:56:02;;;;;;;6.50;2.60;;;;;;;19.36;88.90;100960.45;1769762;80;20983;-42
2022/06/28 03:58:29;;;;;;;10.18;2.37;;;;;;;19.68;86.63;100963.28;1769948;80;21216;-43
2022/06/28 04:00:56;;;;;;;7.17;2.47;;;;;;;19.95;84.38;100959.77;1770170;80;20956;-42
2022/06/28 04:03:23;;;;;;;5.70;2.37;;;;;;;20.20;83.65;100968.21;1770194;80;20928;-42
2022/06/28 04:05:50;;;;;;;7.47;2.75;;;;;;;20.45;81.47;100968.27;1770261;80;20980;-43
2022/06/28 04:08:18;;;;;;;4.62;2.22;;;;;;;20.64;79.70;100963.74;1770276;80;21296;-43
2022/06/28 04:10:48;;;;;;;13.62;2.72;;;;;;;20.86;77.94;100961.77;1770383;81;21850;-43
2022/06/28 04:13:19;;;;;;;10.60;2.47;;;;;;;21.00;77.10;100962.34;1770228;81;20905;-42
2022/06/28 04:15:46;;;;;;;8.95;2.70;;;;;;;21.10;75.48;100966.18;1770192;80;20976;-43
2022/06/28 04:18:15;;;;;;;11.08;2.50;;;;;;;21.21;74.71;100962.48;1770193;80;20941;-42
2022/06/28 04:20:54;;;;;;;9.60;2.62;;;;;;;21.30;74.37;100967.70;1770238;80;20920;-43
2022/06/28 04:23:20;;;;;;;8.20;2.77;;;;;;;21.45;74.02;100965.99;1770518;80;22046;-43
2022/06/28 04:25:47;;;;;;;8.20;2.40;;;;;;;21.66;74.12;100963.11;1770283;80;20973;-40
2022/06/28 04:28:17;;;;;;;7.42;2.17;;;;;;;21.85;72.64;100958.08;1769659;80;20945;-40
2022/06/28 04:30:46;;;;;;;8.20;2.50;;;;;;;22.04;72.55;100958.70;1768884;80;20901;-40
2022/06/28 04:33:12;;;;;;;8.18;2.72;;;;;;;22.25;71.48;100964.50;1770278;81;21486;-40
2022/06/28 04:35:39;;;;;;;8.65;2.55;;;;;;;22.43;70.11;100958.20;1770396;80;21372;-40
2022/06/28 04:38:07;;;;;;;9.48;2.80;;;;;;;22.55;69.17;100965.39;1770093;80;20929;-40
2022/06/28 04:40:36;;;;;;;3.77;2.62;;;;;;;22.65;69.50;100962.58;1769474;80;20893;-40
2022/06/28 04:43:04;;;;;;;3.95;2.52;;;;;;;22.78;68.23;100958.71;1768773;80;20971;-40
2022/06/28 04:45:31;;;;;;;10.72;2.50;;;;;;;22.84;68.76;100960.09;1770201;80;20912;-40
2022/06/28 04:48:09;;;;;;;4.62;2.40;;;;;;;22.90;68.62;100954.92;1770080;80;21391;-41
2022/06/28 04:50:36;;;;;;;10.50;3.35;;;;;;;23.13;68.57;100961.40;1770013;80;20881;-40
2022/06/28 04:53:03;;;;;;;4.37;2.37;;;;;;;23.37;67.20;100960.80;1770109;80;21466;-43
2022/06/28 04:55:30;;;;;;;9.33;2.40;;;;;;;23.49;66.79;100957.34;1770134;80;20976;-42
2022/06/28 04:58:01;;;;;;;5.85;2.50;;;;;;;23.68;66.60;100961.44;1769562;80;21605;-40
2022/06/28 05:00:29;;;;;;;8.95;2.45;;;;;;;23.95;66.58;100948.16;1775623;80;21132;-40
2022/06/28 05:02:57;;;;;;;6.58;2.20;;;;;;;24.22;64.98;100962.29;1774501;80;21031;-40
2022/06/28 05:05:42;;;;;;;4.80;2.27;;;;;;;24.35;62.44;100954.36;1775871;80;20928;-40
2022/06/28 05:08:10;;;;;;;8.35;2.70;;;;;;;24.37;63.18;100951.96;1775623;80;20948;-43
2022/06/28 05:10:45;;;;;;;5.25;2.45;;;;;;;24.54;62.55;100961.86;1774238;80;20912;-40
2022/06/28 05:13:18;;;;;;;2.77;2.35;;;;;;;24.71;61.02;100960.67;1773943;80;21235;-41
2022/06/28 05:15:45;;;;;;;10.93;2.70;;;;;;;24.82;61.53;100954.65;1775540;80;20933;-41
2022/06/28 05:18:13;;;;;;;8.28;2.50;;;;;;;25.01;60.98;100948.91;1775581;80;20932;-40
2022/06/28 05:20:40;;;;;;;7.67;2.40;;;;;;;25.17;60.42;100945.98;1775651;80;20925;-40
2022/06/28 05:23:07;;;;;;;17.60;2.83;;;;;;;25.29;59.27;100950.01;1775891;80;20869;-41
2022/06/28 05:25:36;;;;;;;7.60;2.50;;;;;;;25.38;59.83;100944.88;1767123;80;21156;-41
2022/06/28 05:28:04;;;;;;;8.75;2.50;;;;;;;25.60;58.96;100943.33;1775605;80;20829;-41
2022/06/28 05:30:31;;;;;;;11.75;2.50;;;;;;;25.81;58.47;100943.51;1775660;80;21494;-41
2022/06/28 05:32:58;;;;;;;19.27;2.52;;;;;;;25.94;57.48;100937.29;1775481;80;20936;-42
2022/06/28 05:35:24;;;;;;;8.80;2.15;;;;;;;26.08;57.66;100941.53;1775765;80;20967;-42
2022/06/28 05:37:51;;;;;;;10.72;2.35;;;;;;;26.08;57.45;100933.08;1775808;80;21028;-42
2022/06/28 05:40:19;;;;;;;13.28;3.20;;;;;;;26.06;56.37;100934.18;1775638;80;20936;-42
2022/06/28 05:42:46;;;;;;;19.75;2.58;;;;;;;26.23;56.24;100932.41;1775643;80;20853;-42
2022/06/28 05:45:13;;;;;;;12.88;2.17;;;;;;;26.43;54.92;100927.36;1775682;80;21277;-42
2022/06/28 05:47:40;;;;;;;10.15;2.17;;;;;;;26.57;54.74;100922.28;1775867;80;20968;-42
2022/06/28 05:50:07;;;;;;;15.48;2.22;;;;;;;26.77;54.64;100914.55;1776021;80;22046;-43
2022/06/28 05:52:34;;;;;;;4.65;1.60;;;;;;;26.87;54.59;100912.86;1775985;80;20948;-42
2022/06/28 05:55:01;;;;;;;5.25;2.35;;;;;;;27.08;53.79;100910.77;1775729;80;20853;-42
2022/06/28 05:57:28;;;;;;;3.77;2.00;;;;;;;27.23;52.20;100909.52;1775705;80;20932;-43
2022/06/28 05:59:55;;;;;;;10.93;4.12;;;;;;;27.25;53.04;100914.22;1771403;80;21494;-43
2022/06/28 06:02:22;;;;;;;2.22;2.02;;;;;;;27.32;52.65;100907.92;1770305;80;21219;-42
2022/06/28 06:04:50;;;;;;;13.10;1.98;;;;;;;27.34;51.43;100911.77;1770306;80;20909;-41
2022/06/28 06:07:18;;;;;;;6.70;1.87;;;;;;;27.36;52.00;100908.48;1770328;80;20881;-42
2022/06/28 06:09:45;;;;;;;6.90;2.05;;;;;;;27.47;51.47;100908.45;1770412;81;20936;-42
2022/06/28 06:12:11;;;;;;;5.78;1.77;;;;;;;27.64;49.67;100901.75;1770457;80;20983;-41
2022/06/28 06:14:38;;;;;;;8.55;1.87;;;;;;;27.65;49.41;100906.09;1770272;80;21901;-43
2022/06/28 06:17:05;;;;;;;11.57;1.92;;;;;;;27.62;48.52;100899.71;1770367;80;20897;-42
2022/06/28 06:19:32;;;;;;;2.90;2.00;;;;;;;27.67;49.18;100900.16;1770393;81;20893;-42
2022/06/28 06:22:00;;;;;;;4.15;1.75;;;;;;;27.83;49.11;100900.20;1770171;80;20905;-42
2022/06/28 06:24:26;;;;;;;4.55;1.80;;;;;;;27.85;46.25;100904.90;1770301;80;20964;-42
2022/06/28 06:27:01;;;;;;;3.77;1.98;;;;;;;27.68;47.87;100906.33;1769964;80;21190;-42
2022/06/28 06:29:28;;;;;;;4.25;1.70;;;;;;;27.71;48.09;100900.75;1770347;81;20976;-42
2022/06/28 06:31:54;;;;;;;6.90;1.47;;;;;;;27.79;48.67;100906.25;1770232;81;20909;-42
2022/06/28 06:34:30;;;;;;;7.15;1.30;;;;;;;27.96;48.97;100904.81;1770389;81;20973;-42
2022/06/28 06:36:59;;;;;;;2.17;1.20;;;;;;;28.15;44.59;100917.90;1770219;80;20941;-42
2022/06/28 06:39:26;;;;;;;8.90;1.00;;;;;;;28.15;44.12;100915.23;1770379;80;21085;-42
2022/06/28 06:41:52;;;;;;;5.60;1.60;;;;;;;28.11;43.63;100918.61;1770104;80;20849;-43
2022/06/28 06:44:20;;;;;;;6.50;1.60;;;;;;;28.16;43.89;100926.23;1770389;81;21019;-42
2022/06/28 06:46:49;;;;;;;9.88;1.30;;;;;;;28.27;43.77;100916.47;1769981;80;20957;-42
2022/06/28 06:49:17;;;;;;;1.45;1.35;;;;;;;28.37;42.36;100914.71;1770303;80;20897;-42
2022/06/28 06:51:45;;;;;;;6.03;1.27;;;;;;;28.39;43.00;100921.56;1770233;81;21751;-42
2022/06/28 06:54:12;;;;;;;6.35;1.35;;;;;;;28.46;41.80;100918.39;1770218;81;20932;-42
2022/06/28 06:56:41;;;;;;;6.17;1.62;;;;;;;28.39;40.79;100918.91;1770191;80;20928;-42
2022/06/28 06:59:13;;;;;;;11.15;1.90;;;;;;;28.47;41.05;100926.73;1770192;80;20936;-42
2022/06/28 07:01:39;;;;;;;6.45;1.60;;;;;;;28.53;40.74;100916.36;1770045;80;20980;-42
2022/06/28 07:04:07;;;;;;;1.25;1.10;;;;;;;28.62;39.76;100924.03;1770211;80;21023;-42
2022/06/28 07:06:35;;;;;;;1.95;1.17;;;;;;;28.74;41.02;100922.61;1770452;80;20940;-42
2022/06/28 07:09:03;;;;;;;2.08;1.47;;;;;;;28.80;38.92;100924.28;1770234;81;21446;-43
2022/06/28 07:11:31;;;;;;;11.43;2.25;;;;;;;28.73;40.81;100931.58;1770403;80;20960;-42
2022/06/28 07:13:59;;;;;;;8.70;2.00;;;;;;;28.81;40.54;100931.77;1770104;80;21002;-42
2022/06/28 07:16:26;;;;;;;5.05;2.05;;;;;;;28.79;40.76;100921.73;1770420;81;21039;-42
2022/06/28 07:18:52;;;;;;;4.28;1.22;;;;;;;28.74;39.69;100920.77;1770185;80;20849;-42
2022/06/28 07:21:20;;;;;;;4.47;1.35;;;;;;;28.62;39.62;100912.55;1770344;81;21482;-42
2022/06/28 07:23:47;;;;;;;6.12;1.32;;;;;;;28.64;39.90;100908.77;1770140;80;20933;-43
2022/06/28 07:26:18;;;;;;;4.20;1.35;;;;;;;28.68;40.16;100911.53;1770172;80;20904;-42
2022/06/28 07:28:46;;;;;;;3.33;1.50;;;;;;;28.88;39.90;100898.27;1770064;80;21912;-43
2022/06/28 07:31:13;;;;;;;1.80;1.25;;;;;;;28.99;38.68;100898.63;1770026;80;20885;-42
2022/06/28 07:33:40;;;;;;;3.60;1.20;;;;;;;28.99;39.37;100922.61;1770183;80;20936;-43
2022/06/28 07:36:07;;;;;;;7.45;1.45;;;;;;;29.07;39.68;100925.44;1770153;81;20921;-42
2022/06/28 07:38:35;;;;;;;4.20;1.35;;;;;;;29.22;39.63;100921.87;1770351;81;20960;-43
2022/06/28 07:41:15;;;;;;;15.48;1.70;;;;;;;29.39;39.30;100921.66;1767110;81;21773;-42
2022/06/28 07:43:50;;;;;;;2.15;1.32;;;;;;;29.50;39.46;100923.38;1769859;80;20940;-43
2022/06/28 10:08:08;;;;;;;4.25;2.30;;;;;;;31.97;42.23;100856.02;1821120;77;22706;-43
2022/06/28 10:10:40;;;;;;;5.72;2.42;;;;;;;32.17;40.34;100849.05;1792553;79;20930;-43
2022/06/28 10:16:02;;;;;;;7.22;3.02;;;;;;;32.62;39.72;100851.90;1796738;79;20873;-43
2022/06/28 10:18:28;;;;;;;4.65;2.72;;;;;;;32.81;38.93;100844.05;1782562;79;21973;-43
2022/06/28 10:20:56;;;;;;;3.25;2.80;;;;;;;32.98;39.69;100835.25;1783184;79;20979;-44
2022/06/28 10:23:37;;;;;;;9.75;3.22;;;;;;;33.19;38.97;100835.55;1787215;78;21031;-44
2022/06/28 10:26:19;;;;;;;7.22;2.67;;;;;;;33.15;39.25;100838.76;1795836;78;21221;-44
2022/06/28 10:29:05;;;;;;;5.45;2.40;;;;;;;33.16;37.97;100837.75;1805065;79;20980;-44
2022/06/28 10:31:35;;;;;;;4.60;2.30;;;;;;;33.04;38.30;100837.25;1797209;79;20921;-45
2022/06/28 10:34:12;;;;;;;5.67;2.60;;;;;;;33.12;37.82;100834.56;1798573;79;20964;-45
2022/06/28 10:36:54;;;;;;;6.45;2.10;;;;;;;33.17;37.90;100831.38;1797850;79;20829;-45
2022/06/28 10:39:29;;;;;;;7.35;2.65;;;;;;;33.25;38.47;100827.34;1795114;79;21170;-45
2022/06/28 10:42:06;;;;;;;8.93;2.37;;;;;;;33.48;38.32;100813.27;1799743;78;20850;-45
2022/06/28 10:44:39;;;;;;;7.60;2.60;;;;;;;33.66;38.67;100817.06;1800671;79;20924;-43
2022/06/28 10:47:10;;;;;;;2.60;2.40;;;;;;;33.85;38.94;100813.66;1798914;79;21379;-44
2022/06/28 10:49:57;;;;;;;5.60;2.55;;;;;;;34.12;37.13;100810.22;1778170;79;21490;-44
2022/06/28 10:52:32;;;;;;;2.98;2.62;;;;;;;34.16;36.45;100810.20;1793577;79;21358;-43
2022/06/28 10:55:08;;;;;;;8.25;2.80;;;;;;;33.84;37.45;100811.98;1795298;79;20881;-43
2022/06/28 10:57:38;;;;;;;4.33;2.87;;;;;;;33.55;37.54;100809.40;1792158;79;20945;-44
2022/06/28 11:00:11;;;;;;;4.70;2.83;;;;;;;33.45;38.39;100801.55;1795748;79;20928;-44
2022/06/28 11:02:56;;;;;;;5.55;2.70;;;;;;;33.42;37.74;100802.70;1801293;79;20920;-45
2022/06/28 11:05:30;;;;;;;3.15;2.77;;;;;;;33.53;37.01;100797.00;1796641;78;21262;-43
2022/06/28 11:08:01;;;;;;;3.70;2.90;;;;;;;33.83;36.34;100786.98;1707692;81;20988;-44
2022/06/28 11:10:30;;;;;;;5.42;3.25;;;;;;;34.05;35.35;100792.14;1773645;80;21015;-44
2022/06/28 11:13:21;;;;;;;6.15;2.87;;;;;;;34.10;35.37;100779.50;1776204;80;20987;-44
2022/06/28 11:15:48;;;;;;;8.33;3.20;;;;;;;33.95;35.88;100781.61;1776749;80;20924;-44
2022/06/28 11:18:17;;;;;;;4.62;2.90;;;;;;;33.98;36.71;100776.41;1735116;80;21229;-45
2022/06/28 11:20:45;;;;;;;2.95;2.85;;;;;;;33.93;36.74;100770.19;1756470;80;20928;-44
2022/06/28 11:23:26;;;;;;;6.75;2.85;;;;;;;33.80;36.61;100769.41;1765685;80;20924;-44
2022/06/28 11:28:55;;;;;;;;;;;;;;;34.02;36.66;100761.63;1760557;80;21054;-44
2022/06/28 11:31:21;;;;;;;4.87;2.92;;;;;;;33.89;37.24;100759.97;1768289;80;20996;-43
2022/06/28 11:33:48;;;;;;;3.67;3.00;;;;;;;33.80;37.17;100765.87;1766960;80;20972;-43
2022/06/28 11:36:29;;;;;;;5.22;2.87;;;;;;;33.79;37.99;100770.41;1724973;81;21006;-43
2022/06/28 11:38:53;;;;;;;14.10;2.83;;;;;;;34.01;37.43;100768.00;1748559;80;20983;-43
2022/06/28 11:41:31;;;;;;;5.80;2.70;;;;;;;34.13;37.00;100770.28;1759677;81;20925;-44
2022/06/28 11:43:59;;;;;;;3.70;2.80;;;;;;;34.02;36.81;100769.67;1768959;80;21760;-44
2022/06/28 11:46:27;;;;;;;2.77;2.55;;;;;;;34.08;36.73;100763.59;1770964;80;20994;-44
2022/06/28 11:48:55;;;;;;;3.65;2.50;;;;;;;34.12;35.96;100763.23;1768884;80;20931;-45
2022/06/28 11:51:31;;;;;;;5.22;2.72;;;;;;;34.32;37.32;100760.43;1766322;80;20956;-42
2022/06/28 11:53:59;;;;;;;7.15;2.27;;;;;;;34.57;35.82;100756.25;1735838;80;20893;-44
2022/06/28 11:56:28;;;;;;;3.77;2.90;;;;;;;34.51;35.42;100751.09;1770670;80;22294;-44
2022/06/28 11:58:55;;;;;;;5.47;2.42;;;;;;;34.27;35.44;100741.34;1727848;80;21402;-43
2022/06/28 12:01:24;;;;;;;2.52;2.33;;;;;;;34.06;35.81;100753.54;1771451;80;20931;-43
2022/06/28 12:03:59;;;;;;;2.83;2.40;;;;;;;33.89;36.34;100751.42;1750753;80;20979;-44
2022/06/28 12:06:29;;;;;;;;;;;;;;;33.86;37.24;100746.90;1766203;80;20906;-44
2022/06/28 12:09:04;;;;;;;9.43;2.72;;;;;;;34.00;37.68;100743.52;1771545;79;21321;-44
2022/06/28 12:11:47;;;;;;;8.83;2.35;;;;;;;34.24;36.99;100734.98;1770348;80;20944;-45
2022/06/28 12:14:21;;;;;;;5.70;2.90;;;;;;;34.50;36.63;100728.45;1746839;80;20947;-43
2022/06/28 12:16:59;;;;;;;3.92;2.60;;;;;;;34.62;36.46;100728.33;1753332;80;20986;-43
2022/06/28 12:19:34;;;;;;;5.95;2.60;;;;;;;34.70;36.36;100735.98;1762894;80;20976;-42
2022/06/28 12:22:10;;;;;;;;;;;;;;;34.71;36.09;100730.45;1769009;80;21114;-43
2022/06/28 12:24:58;;;;;;;5.28;2.47;;;;;;;34.56;36.91;100724.19;1770291;80;20081;-43
2022/06/28 12:27:27;;;;;;;6.90;2.62;;;;;;;34.49;37.10;100726.78;1771633;80;21433;-43
2022/06/28 12:29:55;;;;;;;8.13;2.45;;;;;;;34.31;38.14;100724.34;1764546;80;20845;-43
2022/06/28 12:32:22;;;;;;;2.95;2.65;;;;;;;34.19;38.62;100727.94;1770060;80;20975;-43
2022/06/28 12:34:59;;;;;;;4.80;2.67;;;;;;;34.04;38.68;100726.03;1751483;80;21164;-43
2022/06/28 12:37:27;;;;;;;3.08;2.50;;;;;;;33.74;38.71;100726.33;1771503;80;21010;-43
2022/06/28 12:39:55;;;;;;;7.85;2.12;;;;;;;33.55;38.97;100724.91;1755657;80;20935;-43
2022/06/28 12:42:23;;;;;;;6.00;2.98;;;;;;;33.62;38.85;100716.48;1761152;80;20923;-43
2022/06/28 12:44:56;;;;;;;11.60;2.52;;;;;;;33.94;39.24;100720.01;1756156;80;21010;-42
2022/06/28 12:47:24;;;;;;;3.47;2.47;;;;;;;34.30;38.72;100722.67;1754017;80;21227;-43
2022/06/28 12:49:50;;;;;;;2.35;2.08;;;;;;;34.58;37.17;100713.59;1750029;80;20940;-45
2022/06/28 12:52:17;;;;;;;11.48;2.30;;;;;;;34.63;36.40;100704.48;1765776;80;20963;-43
2022/06/28 12:54:45;;;;;;;2.55;2.35;;;;;;;34.77;37.45;100699.33;1771092;80;20972;-43
2022/06/28 12:57:12;;;;;;;2.58;2.30;;;;;;;35.00;36.88;100703.81;1761004;80;20883;-43
2022/06/28 12:59:40;;;;;;;5.17;2.50;;;;;;;35.13;36.35;100704.02;1759686;80;21095;-43
2022/06/28 13:02:08;;;;;;;2.50;2.30;;;;;;;34.98;36.24;100701.79;1762706;80;21445;-43
2022/06/28 13:04:37;;;;;;;5.20;2.80;;;;;;;34.72;36.55;100709.77;1760847;80;20936;-42
2022/06/28 13:07:05;;;;;;;6.10;2.92;;;;;;;34.20;37.47;100702.27;1770623;80;20927;-42
2022/06/28 13:09:32;;;;;;;6.55;2.52;;;;;;;33.88;38.04;100712.67;1769264;80;20913;-43
2022/06/28 13:11:58;;;;;;;5.67;2.72;;;;;;;33.66;38.53;100703.89;1764089;80;21076;-43
2022/06/28 13:14:25;;;;;;;5.25;2.60;;;;;;;33.66;38.27;100697.19;1771151;80;21534;-43
2022/06/28 13:16:51;;;;;;;5.00;2.58;;;;;;;33.76;37.76;100701.49;1774664;80;21007;-43
2022/06/28 13:19:19;;;;;;;7.67;2.33;;;;;;;33.96;37.67;100697.39;1769904;80;20991;-43
2022/06/28 13:21:48;;;;;;;7.40;2.47;;;;;;;34.33;37.72;100693.62;1767427;80;20977;-43
2022/06/28 13:24:16;;;;;;;4.90;2.33;;;;;;;34.84;35.77;100702.95;1758290;80;21129;-43
2022/06/28 13:26:45;;;;;;;4.15;2.27;;;;;;;35.16;34.64;100695.58;1767555;80;20889;-43
2022/06/28 13:29:11;;;;;;;8.28;2.50;;;;;;;35.24;33.84;100698.70;1765710;80;20972;-43
2022/06/28 13:31:38;;;;;;;4.60;2.50;;;;;;;35.23;34.52;100702.41;1766122;81;20952;-43
2022/06/28 13:34:05;;;;;;;2.70;2.10;;;;;;;35.45;34.63;100695.23;1766145;80;20940;-43
2022/06/28 13:36:34;;;;;;;2.83;2.62;;;;;;;35.78;34.47;100698.05;1768704;80;21239;-43
2022/06/28 13:39:03;;;;;;;4.75;2.37;;;;;;;36.12;33.69;100694.40;1720271;81;21041;-43
2022/06/28 13:41:30;;;;;;;4.37;2.35;;;;;;;36.27;33.44;100687.59;1766020;81;20932;-43
2022/06/28 13:43:57;;;;;;;10.60;2.40;;;;;;;36.13;33.77;100685.30;1766508;80;20936;-43
2022/06/28 13:46:25;;;;;;;4.72;2.50;;;;;;;35.95;34.23;100679.80;1766031;81;20826;-43
2022/06/28 13:48:52;;;;;;;6.78;2.72;;;;;;;36.04;33.64;100676.01;1766999;80;22038;-43
2022/06/28 13:51:19;;;;;;;5.70;2.45;;;;;;;36.21;33.30;100671.19;1761120;80;21552;-43
2022/06/28 13:53:46;;;;;;;2.67;2.47;;;;;;;36.41;33.75;100669.19;1762546;80;20923;-43
2022/06/28 13:56:13;;;;;;;7.25;2.30;;;;;;;36.78;33.55;100662.34;1762222;80;20854;-43
2022/06/28 13:58:39;;;;;;;6.10;2.77;;;;;;;36.90;33.46;100663.97;1769023;80;20972;-43
2022/06/28 14:01:06;;;;;;;7.65;2.85;;;;;;;36.96;32.34;100654.55;1767635;80;21096;-44
2022/06/28 14:03:33;;;;;;;6.75;2.37;;;;;;;36.83;33.10;100654.98;1756646;80;20963;-43
2022/06/28 14:05:59;;;;;;;2.92;2.62;;;;;;;36.90;32.58;100655.36;1770472;80;20864;-43
2022/06/28 14:08:26;;;;;;;3.08;2.47;;;;;;;37.01;31.68;100647.25;1772726;80;20940;-43